Time;durP1;ratioP1;P1;durP2;ratioP2;P2;SDS_P1;SDS_P2;PMS_P1;PMS_P2;Temp;Humidity;BMP_temperature;BMP_pressure;BME280_temperature;BME280_humidity;BME280_pressure;Samples;Min_cycle;Max_cycle;Signal;HPM_P1;HPM_P2
2022/08/01 00:02:14;;;;;;;;;;;23.30;72.00;;;;;;4921845;29;19964;-96
2022/08/01 00:04:48;;;;;;;;;;;23.30;72.00;;;;;;4919935;29;19954;-96
2022/08/01 00:07:46;;;;;;;;;;;23.30;70.30;;;;;;4919916;29;19987;-96
2022/08/01 00:10:37;;;;;;;;;;;22.90;69.90;;;;;;4934576;29;19947;-96
2022/08/01 00:13:03;;;;;;;;;;;22.50;71.40;;;;;;4924280;29;20036;-96
2022/08/01 00:15:37;;;;;;;;;;;22.40;71.70;;;;;;4924960;29;19985;-96
2022/08/01 00:18:30;;;;;;;;;;;22.40;71.80;;;;;;4924959;29;19944;-96
2022/08/01 00:21:09;;;;;;;;;;;22.10;73.90;;;;;;4925242;29;19952;-96
2022/08/01 00:23:38;;;;;;;;;;;21.90;74.90;;;;;;4944727;29;19961;-96
2022/08/01 00:26:14;;;;;;;;;;;22.00;74.90;;;;;;4948041;29;19941;-96
2022/08/01 00:29:05;;;;;;;;;;;22.00;75.60;;;;;;4931636;29;19956;-96
2022/08/01 00:31:42;;;;;;;;;;;22.20;76.80;;;;;;4930136;29;19974;-96
2022/08/01 00:34:08;;;;;;;;;;;22.50;77.00;;;;;;4946330;29;20360;-96
2022/08/01 00:37:06;;;;;;;;;;;22.60;75.80;;;;;;4928606;29;19967;-96
2022/08/01 00:39:35;;;;;;;;;;;22.60;74.60;;;;;;4946015;29;20041;-96
2022/08/01 00:42:11;;;;;;;;;;;22.70;75.80;;;;;;4945597;29;20025;-96
2022/08/01 00:44:39;;;;;;;;;;;22.70;76.50;;;;;;4946163;29;19943;-96
2022/08/01 00:47:31;;;;;;;;;;;22.70;76.60;;;;;;4944912;29;19979;-96
2022/08/01 00:53:38;;;;;;;;;;;22.40;73.70;;;;;;4945671;29;19992;-96
2022/08/01 00:56:04;;;;;;;;;;;22.50;75.60;;;;;;4935756;29;19953;-96
2022/08/01 00:58:40;;;;;;;;;;;22.50;76.50;;;;;;4926402;29;19948;-96
2022/08/01 01:01:09;;;;;;;;;;;22.40;77.50;;;;;;4941499;29;19953;-96
2022/08/01 01:03:37;;;;;;;;;;;22.20;75.50;;;;;;4940479;29;20307;-96
2022/08/01 01:06:34;;;;;;;;;;;21.90;75.20;;;;;;4940678;29;19953;-96
2022/08/01 01:09:21;;;;;;;;;;;21.90;76.20;;;;;;4939169;29;19940;-96
2022/08/01 01:12:05;;;;;;;;;;;21.80;78.50;;;;;;4942611;29;19938;-96
2022/08/01 01:14:59;;;;;;;;;;;;;;;;;;;;;
2022/08/01 01:21:16;;;;;;;;;;;21.90;80.40;;;;;;4903974;29;20052;-96
2022/08/01 01:24:01;;;;;;;;;;;21.90;80.40;;;;;;4901857;29;19965;-96
2022/08/01 01:26:45;;;;;;;;;;;21.90;79.80;;;;;;4944120;29;19962;-96
2022/08/01 01:29:29;;;;;;;;;;;21.90;79.10;;;;;;4943881;29;20475;-96
2022/08/01 01:35:49;;;;;;;;;;;21.90;79.50;;;;;;4942101;29;20387;-96
2022/08/01 01:38:49;;;;;;;;;;;21.90;78.90;;;;;;4943732;29;19997;-96
2022/08/01 01:41:40;;;;;;;;;;;21.80;79.00;;;;;;4901302;29;20412;-96
2022/08/01 01:44:53;;;;;;;;;;;21.90;78.80;;;;;;4925061;29;19957;-96
2022/08/01 01:47:18;;;;;;;;;;;22.00;79.60;;;;;;4941828;28;19984;-96
2022/08/01 01:49:46;;;;;;;;;;;22.00;78.80;;;;;;4942318;29;19945;-96
2022/08/01 01:52:16;;;;;;;;;;;22.00;78.90;;;;;;4942050;29;20387;-96
2022/08/01 01:54:50;;;;;;;;;;;22.00;78.00;;;;;;4925443;29;19950;-96
2022/08/01 02:03:42;;;;;;;;;;;21.80;79.60;;;;;;4901921;29;20377;-96
2022/08/01 02:06:23;;;;;;;;;;;21.70;80.50;;;;;;4935591;29;19994;-96
2022/08/01 02:08:50;;;;;;;;;;;21.70;80.60;;;;;;4939941;29;19949;-96
2022/08/01 02:11:18;;;;;;;;;;;21.70;81.20;;;;;;4939782;29;19951;-96
2022/08/01 02:13:48;;;;;;;;;;;21.60;79.30;;;;;;4939522;29;19946;-96
2022/08/01 02:16:15;;;;;;;;;;;21.60;79.10;;;;;;4939378;29;19939;-95
2022/08/01 02:18:43;;;;;;;;;;;21.60;81.00;;;;;;4921715;29;19948;-96
2022/08/01 02:21:14;;;;;;;;;;;21.50;81.60;;;;;;4939436;29;20002;-96
2022/08/01 02:23:51;;;;;;;;;;;21.50;81.90;;;;;;4922842;29;19968;-96
2022/08/01 02:26:59;;;;;;;;;;;;;;;;;;;;;
2022/08/01 02:29:44;;;;;;;;;;;21.40;82.00;;;;;;4941232;29;19939;-96
2022/08/01 02:32:24;;;;;;;;;;;21.30;80.70;;;;;;4917042;29;19985;-96
2022/08/01 02:35:07;;;;;;;;;;;21.20;80.30;;;;;;4846076;29;19956;-96
2022/08/01 02:37:34;;;;;;;;;;;21.10;81.40;;;;;;4940444;29;20041;-96
2022/08/01 02:40:05;;;;;;;;;;;21.10;82.40;;;;;;4923165;29;19980;-96
2022/08/01 02:46:03;;;;;;;;;;;21.00;82.40;;;;;;4940216;29;20037;-96
2022/08/01 02:48:29;;;;;;;;;;;21.20;82.20;;;;;;4940121;29;19994;-96
2022/08/01 02:54:09;;;;;;;;;;;21.50;80.90;;;;;;4914795;29;19955;-95
2022/08/01 02:56:40;;;;;;;;;;;21.60;79.40;;;;;;4940413;29;19936;-96
2022/08/01 03:02:09;;;;;;;;;;;21.70;78.50;;;;;;4939406;29;20002;-96
2022/08/01 03:04:45;;;;;;;;;;;21.80;78.70;;;;;;4922469;29;19945;-96
2022/08/01 03:07:12;;;;;;;;;;;21.80;78.70;;;;;;4917746;29;19945;-96
2022/08/01 03:10:03;;;;;;;;;;;21.80;78.10;;;;;;4939197;29;20017;-96
2022/08/01 03:12:31;;;;;;;;;;;21.60;76.70;;;;;;4937210;29;20407;-96
2022/08/01 03:15:00;;;;;;;;;;;21.30;76.90;;;;;;4938515;29;19948;-96
2022/08/01 03:17:46;;;;;;;;;;;21.30;77.80;;;;;;4940049;29;19946;-96
2022/08/01 03:20:14;;;;;;;;;;;21.30;78.70;;;;;;4939032;29;19946;-96
2022/08/01 03:22:42;;;;;;;;;;;21.30;80.30;;;;;;4938132;29;19957;-96
2022/08/01 03:25:13;;;;;;;;;;;21.30;80.10;;;;;;4938083;29;20042;-95
2022/08/01 03:27:39;;;;;;;;;;;21.30;79.70;;;;;;4938575;29;19976;-96
2022/08/01 03:30:06;;;;;;;;;;;21.40;79.60;;;;;;4937797;29;19988;-96
2022/08/01 03:32:32;;;;;;;;;;;21.30;78.40;;;;;;4937665;29;20386;-96
2022/08/01 03:34:57;;;;;;;;;;;21.10;77.50;;;;;;4920845;29;20044;-96
2022/08/01 03:37:42;;;;;;;;;;;20.90;78.10;;;;;;4919962;29;20388;-95
2022/08/01 03:40:10;;;;;;;;;;;20.80;78.80;;;;;;4919954;29;19944;-95
2022/08/01 03:42:39;;;;;;;;;;;20.80;80.10;;;;;;4919842;29;19995;-95
2022/08/01 03:45:06;;;;;;;;;;;20.90;80.00;;;;;;4919757;29;19955;-96
2022/08/01 03:47:34;;;;;;;;;;;21.00;79.30;;;;;;4919609;29;20023;-96
2022/08/01 03:50:01;;;;;;;;;;;21.30;78.80;;;;;;4920164;29;19950;-96
2022/08/01 03:52:28;;;;;;;;;;;21.30;78.60;;;;;;4937421;29;19983;-96
2022/08/01 03:54:55;;;;;;;;;;;21.30;78.70;;;;;;4937174;29;19940;-96
2022/08/01 03:57:21;;;;;;;;;;;21.30;78.70;;;;;;4937107;29;19941;-96
2022/08/01 03:59:47;;;;;;;;;;;21.30;79.00;;;;;;4936708;29;19943;-96
2022/08/01 04:02:14;;;;;;;;;;;21.20;77.60;;;;;;4937731;29;19963;-96
2022/08/01 04:04:43;;;;;;;;;;;21.00;76.50;;;;;;4937687;29;19943;-96
2022/08/01 04:07:27;;;;;;;;;;;20.80;76.70;;;;;;4937643;29;19941;-96
2022/08/01 04:09:56;;;;;;;;;;;20.80;77.80;;;;;;4920243;29;19952;-95
2022/08/01 04:12:25;;;;;;;;;;;20.80;78.50;;;;;;4937910;29;19944;-96
2022/08/01 04:14:54;;;;;;;;;;;20.80;78.70;;;;;;4937813;29;20032;-96
2022/08/01 04:17:23;;;;;;;;;;;20.70;79.30;;;;;;4937381;29;19966;-96
2022/08/01 04:19:49;;;;;;;;;;;20.70;78.80;;;;;;4936968;29;19993;-96
2022/08/01 04:22:15;;;;;;;;;;;20.80;78.40;;;;;;4937185;29;19962;-96
2022/08/01 04:24:53;;;;;;;;;;;20.80;79.00;;;;;;4936750;29;19998;-96
2022/08/01 04:27:22;;;;;;;;;;;20.90;79.50;;;;;;4936565;29;20007;-95
2022/08/01 04:29:51;;;;;;;;;;;20.90;80.00;;;;;;4937007;29;20412;-96
2022/08/01 04:32:17;;;;;;;;;;;20.90;80.10;;;;;;4936534;29;19952;-95
2022/08/01 04:35:02;;;;;;;;;;;20.90;80.40;;;;;;4936963;29;20086;-96
2022/08/01 04:37:38;;;;;;;;;;;20.80;80.60;;;;;;4936423;29;20014;-96
2022/08/01 04:40:12;;;;;;;;;;;20.80;80.40;;;;;;4936772;29;20450;-96
2022/08/01 04:42:40;;;;;;;;;;;20.80;79.50;;;;;;4936357;29;19972;-96
2022/08/01 04:45:10;;;;;;;;;;;20.80;80.10;;;;;;4936870;29;19947;-96
2022/08/01 04:47:37;;;;;;;;;;;20.80;79.30;;;;;;4951311;23;20445;-96
2022/08/01 04:50:09;;;;;;;;;;;20.60;79.70;;;;;;4919622;29;19949;-96
2022/08/01 04:52:53;;;;;;;;;;;20.60;79.10;;;;;;4920211;29;19953;-96
2022/08/01 04:55:19;;;;;;;;;;;20.80;79.10;;;;;;4937133;29;20026;-96
2022/08/01 04:57:47;;;;;;;;;;;21.00;79.10;;;;;;4936783;29;19947;-95
2022/08/01 05:00:13;;;;;;;;;;;21.30;78.60;;;;;;4919969;29;19949;-96
2022/08/01 05:02:41;;;;;;;;;;;21.40;78.30;;;;;;4919760;29;19996;-95
2022/08/01 05:05:08;;;;;;;;;;;21.50;78.00;;;;;;4919741;29;19944;-96
2022/08/01 05:07:44;;;;;;;;;;;21.50;77.60;;;;;;4937100;29;20056;-96
2022/08/01 05:10:13;;;;;;;;;;;21.60;76.70;;;;;;4921436;29;19947;-96
2022/08/01 05:12:39;;;;;;;;;;;21.70;77.30;;;;;;4939992;29;20421;-96
2022/08/01 05:15:08;;;;;;;;;;;21.80;76.30;;;;;;4922584;29;19943;-96
2022/08/01 05:18:00;;;;;;;;;;;21.90;75.00;;;;;;4923916;29;19944;-96
2022/08/01 05:20:26;;;;;;;;;;;22.00;74.20;;;;;;4940515;29;19939;-96
2022/08/01 05:22:52;;;;;;;;;;;22.20;73.50;;;;;;4939960;29;19957;-96
2022/08/01 05:25:17;;;;;;;;;;;22.30;73.90;;;;;;4940543;29;19947;-96
2022/08/01 05:27:44;;;;;;;;;;;22.40;73.60;;;;;;4923006;29;19951;-96
2022/08/01 05:30:13;;;;;;;;;;;22.50;73.20;;;;;;4938996;29;19949;-96
2022/08/01 05:32:38;;;;;;;;;;;22.60;72.00;;;;;;4939228;29;20000;-96
2022/08/01 05:35:04;;;;;;;;;;;22.70;72.60;;;;;;4921951;29;20039;-95
2022/08/01 05:37:30;;;;;;;;;;;22.80;73.30;;;;;;4940841;29;19966;-96
2022/08/01 05:39:56;;;;;;;;;;;22.90;73.10;;;;;;4944902;29;19940;-95
2022/08/01 05:42:21;;;;;;;;;;;22.90;71.80;;;;;;4943306;29;19994;-95
2022/08/01 05:44:47;;;;;;;;;;;23.00;71.10;;;;;;4945481;29;19943;-96
2022/08/01 05:47:13;;;;;;;;;;;23.20;71.00;;;;;;4942141;29;19981;-96
2022/08/01 05:49:39;;;;;;;;;;;23.50;70.60;;;;;;4940469;29;19946;-96
2022/08/01 05:52:05;;;;;;;;;;;23.80;69.70;;;;;;4940447;29;19952;-96
2022/08/01 05:54:30;;;;;;;;;;;24.00;68.20;;;;;;4924016;29;19946;-95
2022/08/01 05:56:59;;;;;;;;;;;24.20;67.60;;;;;;4933115;29;19944;-96
2022/08/01 05:59:25;;;;;;;;;;;24.30;67.30;;;;;;4904613;29;19949;-96
2022/08/01 06:01:51;;;;;;;;;;;24.50;67.20;;;;;;4919472;29;19951;-96
2022/08/01 06:04:16;;;;;;;;;;;24.70;66.90;;;;;;4919462;29;19939;-95
2022/08/01 06:06:42;;;;;;;;;;;24.70;66.80;;;;;;4921927;29;20366;-95
2022/08/01 06:09:11;;;;;;;;;;;24.80;66.80;;;;;;4926753;29;20311;-96
2022/08/01 06:11:36;;;;;;;;;;;24.90;67.50;;;;;;4909524;29;19993;-96
2022/08/01 06:14:02;;;;;;;;;;;24.90;68.70;;;;;;4919815;29;19934;-96
2022/08/01 06:16:27;;;;;;;;;;;25.00;69.50;;;;;;4919224;29;20393;-96
2022/08/01 06:18:53;;;;;;;;;;;25.10;69.70;;;;;;4919829;29;19944;-96
2022/08/01 06:21:19;;;;;;;;;;;25.20;69.20;;;;;;4901197;29;19951;-96
2022/08/01 06:23:44;;;;;;;;;;;25.20;69.40;;;;;;4919016;29;20019;-96
2022/08/01 06:26:10;;;;;;;;;;;25.30;70.10;;;;;;4919656;29;20314;-96
2022/08/01 06:28:36;;;;;;;;;;;25.50;69.80;;;;;;4901945;29;20003;-96
2022/08/01 06:31:01;;;;;;;;;;;25.60;70.20;;;;;;4919107;29;19936;-96
2022/08/01 06:33:27;;;;;;;;;;;25.70;71.50;;;;;;4918740;29;20058;-96
2022/08/01 06:35:53;;;;;;;;;;;25.80;71.90;;;;;;4919630;29;19967;-96
2022/08/01 06:38:21;;;;;;;;;;;25.80;71.10;;;;;;4919024;29;20805;-96
2022/08/01 06:40:47;;;;;;;;;;;25.90;71.20;;;;;;4918926;29;19948;-96
2022/08/01 06:43:12;;;;;;;;;;;26.10;70.60;;;;;;4918922;29;20055;-96
2022/08/01 06:45:38;;;;;;;;;;;26.10;71.00;;;;;;4919589;29;19947;-96
2022/08/01 06:48:04;;;;;;;;;;;26.20;70.60;;;;;;4919314;29;20357;-96
2022/08/01 06:50:30;;;;;;;;;;;26.20;70.00;;;;;;4919745;29;20477;-96
2022/08/01 06:52:56;;;;;;;;;;;26.30;69.90;;;;;;4920123;29;19948;-96
2022/08/01 06:55:21;;;;;;;;;;;26.30;70.30;;;;;;4903462;29;19942;-96
2022/08/01 06:57:48;;;;;;;;;;;26.40;70.50;;;;;;4917776;29;19945;-96
2022/08/01 07:00:15;;;;;;;;;;;26.40;70.40;;;;;;4917848;29;19995;-96
2022/08/01 07:02:43;;;;;;;;;;;26.40;70.00;;;;;;4918185;29;19969;-96
2022/08/01 07:05:09;;;;;;;;;;;26.50;70.30;;;;;;4918437;29;20020;-96
2022/08/01 07:07:35;;;;;;;;;;;26.50;69.50;;;;;;4919521;29;20379;-96
2022/08/01 07:10:00;;;;;;;;;;;26.60;69.90;;;;;;4904676;29;19952;-96
2022/08/01 07:12:26;;;;;;;;;;;26.60;70.10;;;;;;4920662;29;19939;-96
2022/08/01 07:14:51;;;;;;;;;;;26.60;70.10;;;;;;4915499;29;19947;-96
2022/08/01 07:17:17;;;;;;;;;;;26.70;69.80;;;;;;4919482;29;19988;-96
2022/08/01 07:19:43;;;;;;;;;;;26.80;69.00;;;;;;4919350;29;19944;-96
2022/08/01 07:22:08;;;;;;;;;;;26.90;69.50;;;;;;4920362;29;19965;-96
2022/08/01 07:24:34;;;;;;;;;;;27.00;68.70;;;;;;4919638;29;19937;-96
2022/08/01 07:26:59;;;;;;;;;;;27.20;67.80;;;;;;4920149;29;19939;-96
2022/08/01 07:29:25;;;;;;;;;;;27.20;67.70;;;;;;4919590;29;20294;-96
2022/08/01 07:31:52;;;;;;;;;;;27.30;67.00;;;;;;4903563;29;20424;-96
2022/08/01 07:34:18;;;;;;;;;;;27.40;66.90;;;;;;4906236;29;19955;-96
2022/08/01 07:36:44;;;;;;;;;;;27.50;67.20;;;;;;4926617;29;19961;-96
2022/08/01 07:39:10;;;;;;;;;;;27.50;66.70;;;;;;4933074;29;19952;-96
2022/08/01 07:41:35;;;;;;;;;;;27.50;66.30;;;;;;4905622;29;19957;-95
2022/08/01 07:44:01;;;;;;;;;;;27.50;67.10;;;;;;4920869;29;20009;-96
2022/08/01 07:46:27;;;;;;;;;;;27.60;65.70;;;;;;4919903;29;19968;-96
2022/08/01 07:48:52;;;;;;;;;;;27.50;65.60;;;;;;4922280;29;19979;-96
2022/08/01 07:51:18;;;;;;;;;;;27.50;65.40;;;;;;4903996;29;19954;-96
2022/08/01 07:53:43;;;;;;;;;;;27.50;64.70;;;;;;4921329;29;19941;-96
2022/08/01 07:56:09;;;;;;;;;;;27.50;65.70;;;;;;4918957;29;20410;-96
2022/08/01 07:58:35;;;;;;;;;;;27.50;65.20;;;;;;4918654;29;19945;-96
2022/08/01 08:01:00;;;;;;;;;;;27.60;65.70;;;;;;4917953;29;20027;-96
2022/08/01 08:03:26;;;;;;;;;;;27.70;64.70;;;;;;4903234;29;20011;-96
2022/08/01 08:05:52;;;;;;;;;;;27.70;64.10;;;;;;4921983;29;19944;-96
2022/08/01 08:08:18;;;;;;;;;;;27.80;63.10;;;;;;4920192;29;19951;-96
2022/08/01 08:10:44;;;;;;;;;;;28.00;62.60;;;;;;4923603;29;20002;-96
2022/08/01 08:13:09;;;;;;;;;;;28.00;62.00;;;;;;4921834;29;19967;-96
2022/08/01 08:15:35;;;;;;;;;;;28.00;62.00;;;;;;4905532;29;20009;-95
2022/08/01 08:18:03;;;;;;;;;;;28.10;62.20;;;;;;4908725;29;19955;-95
2022/08/01 08:20:29;;;;;;;;;;;28.20;59.40;;;;;;4905674;29;19995;-96
2022/08/01 08:22:57;;;;;;;;;;;28.30;58.00;;;;;;4921606;29;19967;-96
2022/08/01 08:25:23;;;;;;;;;;;28.30;57.30;;;;;;4910720;29;20316;-96
2022/08/01 08:27:49;;;;;;;;;;;28.50;59.50;;;;;;4930447;29;20088;-94
2022/08/01 08:30:15;;;;;;;;;;;28.50;60.20;;;;;;4931345;29;19951;-93
2022/08/01 08:32:41;;;;;;;;;;;28.50;58.20;;;;;;4933967;29;20448;-94
2022/08/01 08:35:07;;;;;;;;;;;28.50;57.90;;;;;;4935195;29;19995;-95
2022/08/01 08:37:42;;;;;;;;;;;28.70;57.90;;;;;;4937685;29;19944;-96
2022/08/01 08:40:11;;;;;;;;;;;28.70;56.30;;;;;;4945316;29;19948;-96
2022/08/01 08:42:41;;;;;;;;;;;28.70;56.00;;;;;;4949138;29;19933;-96
2022/08/01 08:45:06;;;;;;;;;;;28.70;54.60;;;;;;4936696;29;19947;-96
2022/08/01 08:47:32;;;;;;;;;;;28.80;56.00;;;;;;4943776;29;19952;-94
2022/08/01 08:49:59;;;;;;;;;;;28.90;57.60;;;;;;4931544;29;20436;-95
2022/08/01 08:52:25;;;;;;;;;;;29.00;56.90;;;;;;4940785;29;19943;-96
2022/08/01 08:54:55;;;;;;;;;;;29.20;55.20;;;;;;4955898;29;19951;-96
2022/08/01 08:57:21;;;;;;;;;;;29.30;55.00;;;;;;4929061;29;19945;-96
2022/08/01 08:59:50;;;;;;;;;;;29.50;54.10;;;;;;4947171;29;20028;-96
2022/08/01 09:02:16;;;;;;;;;;;29.40;54.20;;;;;;4941918;29;19962;-96
2022/08/01 09:04:42;;;;;;;;;;;29.40;53.00;;;;;;4941164;29;19954;-96
2022/08/01 09:07:10;;;;;;;;;;;29.50;55.20;;;;;;4945874;29;19942;-96
2022/08/01 09:09:37;;;;;;;;;;;29.40;53.90;;;;;;4942065;29;19941;-92
2022/08/01 09:12:05;;;;;;;;;;;29.50;55.20;;;;;;4932560;29;19996;-96
2022/08/01 09:51:10;;;;;;;;;;;31.20;45.50;;;;;;5962823;23;19948;-96
2022/08/01 10:35:57;;;;;;;;;;;31.80;41.60;;;;;;5116928;23;19966;-96
2022/08/01 10:38:28;;;;;;;;;;;31.90;41.40;;;;;;5246863;23;19964;-96
2022/08/01 10:41:03;;;;;;;;;;;32.00;42.00;;;;;;4941642;29;19959;-96
2022/08/01 10:43:33;;;;;;;;;;;32.10;41.50;;;;;;4938879;29;19968;-96
2022/08/01 10:46:05;;;;;;;;;;;32.20;40.30;;;;;;4940714;29;19940;-96
2022/08/01 10:48:52;;;;;;;;;;;32.20;39.00;;;;;;4941023;29;19960;-96
2022/08/01 10:51:24;;;;;;;;;;;32.40;39.60;;;;;;4941671;29;19931;-96
2022/08/01 10:53:52;;;;;;;;;;;32.30;37.90;;;;;;4908313;29;19956;-96
2022/08/01 10:56:19;;;;;;;;;;;32.30;38.30;;;;;;4939245;29;19941;-96
2022/08/01 10:58:47;;;;;;;;;;;32.50;37.00;;;;;;4936543;29;19964;-96
2022/08/01 11:01:18;;;;;;;;;;;32.50;37.10;;;;;;4921843;29;19950;-96
2022/08/01 11:04:07;;;;;;;;;;;32.50;37.30;;;;;;4924082;29;19970;-96
2022/08/01 11:06:33;;;;;;;;;;;32.80;39.10;;;;;;4914666;29;19954;-96
2022/08/01 11:09:20;;;;;;;;;;;32.80;38.80;;;;;;4939192;29;19927;-96
2022/08/01 11:11:57;;;;;;;;;;;32.90;38.60;;;;;;4927045;29;19949;-96
2022/08/01 11:14:26;;;;;;;;;;;33.10;38.80;;;;;;4918667;29;19948;-96
2022/08/01 11:16:52;;;;;;;;;;;33.00;38.50;;;;;;4918413;29;19940;-96
2022/08/01 11:19:22;;;;;;;;;;;33.10;38.60;;;;;;4916480;29;19951;-96
2022/08/01 11:21:55;;;;;;;;;;;33.10;38.00;;;;;;4922749;29;19949;-96
2022/08/01 11:24:42;;;;;;;;;;;33.10;37.10;;;;;;4918307;29;19952;-96
2022/08/01 11:27:21;;;;;;;;;;;33.10;35.50;;;;;;4923993;29;19952;-96
2022/08/01 11:30:09;;;;;;;;;;;33.20;37.10;;;;;;4920673;29;19945;-96
2022/08/01 11:32:47;;;;;;;;;;;33.20;36.50;;;;;;4935205;29;19948;-96
2022/08/01 11:35:12;;;;;;;;;;;33.20;37.40;;;;;;4929957;29;19960;-96
2022/08/01 11:37:38;;;;;;;;;;;33.50;36.90;;;;;;4927889;29;19935;-94
2022/08/01 11:40:16;;;;;;;;;;;33.70;37.70;;;;;;4941573;29;19968;-96
2022/08/01 11:42:43;;;;;;;;;;;33.40;38.20;;;;;;4944054;29;20052;-95
2022/08/01 11:45:09;;;;;;;;;;;33.30;37.70;;;;;;4936585;29;19986;-96
2022/08/01 11:47:45;;;;;;;;;;;33.60;36.80;;;;;;4936910;29;19946;-95
2022/08/01 11:50:30;;;;;;;;;;;34.00;36.70;;;;;;4936525;29;19951;-96
2022/08/01 11:53:02;;;;;;;;;;;34.20;35.00;;;;;;4936734;29;19947;-94
2022/08/01 11:55:28;;;;;;;;;;;34.50;35.20;;;;;;4919008;29;20294;-94
2022/08/01 11:58:01;;;;;;;;;;;34.70;34.50;;;;;;4936906;29;20022;-93
2022/08/01 12:00:28;;;;;;;;;;;34.40;35.20;;;;;;4930700;29;19957;-94
2022/08/01 12:02:57;;;;;;;;;;;34.50;36.70;;;;;;4935791;29;19959;-93
2022/08/01 12:05:23;;;;;;;;;;;34.80;32.90;;;;;;4933931;29;20108;-93
2022/08/01 12:07:49;;;;;;;;;;;34.70;31.60;;;;;;4935928;29;20404;-95
2022/08/01 12:10:16;;;;;;;;;;;34.70;33.10;;;;;;4936366;29;19945;-96
2022/08/01 12:13:02;;;;;;;;;;;34.80;33.80;;;;;;4936612;29;19948;-95
2022/08/01 12:15:32;;;;;;;;;;;34.90;33.90;;;;;;4936073;29;19941;-93
2022/08/01 12:17:59;;;;;;;;;;;34.90;33.10;;;;;;4915485;29;19946;-94
2022/08/01 12:20:26;;;;;;;;;;;34.70;33.70;;;;;;4953898;29;19948;-96
2022/08/01 12:22:55;;;;;;;;;;;34.70;33.50;;;;;;4961524;29;19968;-96
2022/08/01 12:25:21;;;;;;;;;;;34.80;33.70;;;;;;4963733;29;19969;-96
2022/08/01 12:27:47;;;;;;;;;;;34.80;33.70;;;;;;4965140;29;19947;-96
2022/08/01 12:30:14;;;;;;;;;;;34.80;33.30;;;;;;4965907;29;19944;-96
2022/08/01 12:32:41;;;;;;;;;;;35.00;33.60;;;;;;4969341;29;19947;-96
2022/08/01 12:35:08;;;;;;;;;;;35.50;32.80;;;;;;4953469;29;20006;-96
2022/08/01 12:37:37;;;;;;;;;;;35.80;32.10;;;;;;4952902;29;19963;-96
2022/08/01 12:40:13;;;;;;;;;;;35.80;33.10;;;;;;4968724;29;19973;-96
2022/08/01 12:42:43;;;;;;;;;;;36.20;31.10;;;;;;4960150;29;20068;-96
2022/08/01 12:45:09;;;;;;;;;;;36.30;31.40;;;;;;4945621;29;20006;-96
2022/08/01 12:47:39;;;;;;;;;;;36.20;31.70;;;;;;4956502;29;20002;-96
2022/08/01 12:50:10;;;;;;;;;;;36.40;32.90;;;;;;4954602;29;19947;-96
2022/08/01 12:55:13;;;;;;;;;;;36.60;31.10;;;;;;5031189;23;19982;-96
2022/08/01 12:57:40;;;;;;;;;;;36.60;31.00;;;;;;4945581;29;19947;-96
2022/08/01 13:00:14;;;;;;;;;;;36.90;30.20;;;;;;4942278;29;19948;-96
2022/08/01 13:02:40;;;;;;;;;;;36.90;29.80;;;;;;4933410;29;19974;-96
2022/08/01 13:05:06;;;;;;;;;;;37.20;29.50;;;;;;4931928;29;19951;-96
2022/08/01 13:07:35;;;;;;;;;;;37.20;30.10;;;;;;4929198;29;19960;-96
2022/08/01 13:10:00;;;;;;;;;;;37.60;29.60;;;;;;4939642;29;19967;-96
2022/08/01 13:12:26;;;;;;;;;;;38.60;28.40;;;;;;4939773;29;20421;-96
2022/08/01 13:14:52;;;;;;;;;;;39.10;25.90;;;;;;4940110;29;20467;-96
2022/08/01 13:17:30;;;;;;;;;;;40.00;26.10;;;;;;4939815;29;20471;-96
2022/08/01 13:19:56;;;;;;;;;;;39.80;26.00;;;;;;4945351;29;19980;-96
2022/08/01 13:22:31;;;;;;;;;;;39.40;25.70;;;;;;4956579;29;19961;-96
2022/08/01 13:25:09;;;;;;;;;;;39.20;25.60;;;;;;4944410;29;19939;-96
2022/08/01 13:27:34;;;;;;;;;;;40.00;25.30;;;;;;4940876;29;20010;-96
2022/08/01 13:30:10;;;;;;;;;;;40.20;24.80;;;;;;4940712;29;19938;-96
2022/08/01 13:32:35;;;;;;;;;;;39.80;24.90;;;;;;4940733;29;19943;-96
2022/08/01 13:35:02;;;;;;;;;;;39.50;23.70;;;;;;4940953;29;19941;-94
2022/08/01 13:37:28;;;;;;;;;;;39.80;24.60;;;;;;4943391;29;19973;-96
2022/08/01 13:39:53;;;;;;;;;;;40.40;23.70;;;;;;4939525;29;20383;-96
2022/08/01 13:42:19;;;;;;;;;;;41.00;22.30;;;;;;4939089;29;19945;-96
2022/08/01 13:44:47;;;;;;;;;;;40.50;23.30;;;;;;4939834;29;19946;-96
2022/08/01 13:47:13;;;;;;;;;;;40.20;23.60;;;;;;4941790;29;20062;-96
2022/08/01 13:49:38;;;;;;;;;;;40.30;23.60;;;;;;4946797;29;20413;-96
2022/08/01 13:52:05;;;;;;;;;;;40.10;24.10;;;;;;4940251;29;19944;-96
2022/08/01 13:54:31;;;;;;;;;;;39.10;25.50;;;;;;4924061;29;19979;-96
2022/08/01 13:56:57;;;;;;;;;;;38.60;26.10;;;;;;4939328;29;19952;-96
2022/08/01 13:59:22;;;;;;;;;;;39.30;25.80;;;;;;4938879;29;19995;-96
2022/08/01 14:01:48;;;;;;;;;;;39.60;25.40;;;;;;4939154;29;20033;-96
2022/08/01 14:04:14;;;;;;;;;;;39.30;25.60;;;;;;4942667;29;20035;-96
2022/08/01 14:06:39;;;;;;;;;;;39.80;24.60;;;;;;4940077;29;20497;-96
2022/08/01 14:09:05;;;;;;;;;;;39.70;24.70;;;;;;4940553;29;19941;-96
2022/08/01 14:11:31;;;;;;;;;;;40.30;24.60;;;;;;4921901;29;19952;-96
2022/08/01 14:13:57;;;;;;;;;;;40.70;24.00;;;;;;4938942;29;19950;-96
2022/08/01 14:16:22;;;;;;;;;;;40.40;24.80;;;;;;4938428;29;20027;-96
2022/08/01 14:18:48;;;;;;;;;;;39.70;24.90;;;;;;4937984;29;19940;-96
2022/08/01 14:21:14;;;;;;;;;;;39.60;24.80;;;;;;4938063;29;19947;-96
2022/08/01 14:23:41;;;;;;;;;;;39.40;24.90;;;;;;4938412;29;19969;-96
2022/08/01 14:26:08;;;;;;;;;;;39.40;25.10;;;;;;4938105;29;20037;-96
2022/08/01 14:28:34;;;;;;;;;;;39.70;24.70;;;;;;4938167;29;20025;-96
2022/08/01 14:30:59;;;;;;;;;;;40.70;24.40;;;;;;4938017;29;19972;-96
2022/08/01 14:33:26;;;;;;;;;;;41.50;24.10;;;;;;4937887;29;20007;-96
2022/08/01 14:35:51;;;;;;;;;;;41.60;27.30;;;;;;4937917;29;19995;-96
2022/08/01 14:38:18;;;;;;;;;;;42.60;25.80;;;;;;4938293;29;19990;-96
2022/08/01 14:40:46;;;;;;;;;;;43.20;26.10;;;;;;4939123;29;19946;-96
2022/08/01 14:43:12;;;;;;;;;;;43.40;25.20;;;;;;4921819;29;19965;-96
2022/08/01 14:45:38;;;;;;;;;;;42.90;24.90;;;;;;4921670;29;19952;-96
2022/08/01 14:48:04;;;;;;;;;;;42.30;25.90;;;;;;4922005;29;19947;-96
2022/08/01 14:50:30;;;;;;;;;;;42.20;26.70;;;;;;4938304;29;19945;-96
2022/08/01 14:52:56;;;;;;;;;;;42.70;26.30;;;;;;4939039;29;19994;-96
2022/08/01 14:55:24;;;;;;;;;;;43.40;25.70;;;;;;4939408;29;19952;-96
2022/08/01 14:57:50;;;;;;;;;;;44.10;24.90;;;;;;4921921;29;19941;-96
2022/08/01 15:00:16;;;;;;;;;;;42.40;21.20;;;;;;4938461;29;20320;-96
2022/08/01 15:02:42;;;;;;;;;;;42.20;22.40;;;;;;4938163;29;19960;-96
2022/08/01 15:05:08;;;;;;;;;;;42.30;22.10;;;;;;4920249;29;19953;-96
2022/08/01 15:07:34;;;;;;;;;;;42.10;25.10;;;;;;4936804;29;20366;-96
2022/08/01 15:09:59;;;;;;;;;;;42.40;24.60;;;;;;4937342;29;19983;-96
2022/08/01 15:12:25;;;;;;;;;;;42.40;22.40;;;;;;4937405;29;19951;-96
2022/08/01 15:14:51;;;;;;;;;;;42.30;21.50;;;;;;4937370;29;19981;-96
2022/08/01 15:17:31;;;;;;;;;;;43.00;24.60;;;;;;4936965;29;19938;-96
2022/08/01 15:19:58;;;;;;;;;;;42.80;25.00;;;;;;4936944;29;20305;-96
2022/08/01 15:22:24;;;;;;;;;;;43.30;24.40;;;;;;4937079;29;19949;-96
2022/08/01 15:24:50;;;;;;;;;;;41.90;26.10;;;;;;4937147;29;19945;-96
2022/08/01 15:27:16;;;;;;;;;;;41.30;27.50;;;;;;4937091;29;20384;-96
2022/08/01 15:29:42;;;;;;;;;;;41.40;28.10;;;;;;4936908;29;19952;-96
2022/08/01 15:32:08;;;;;;;;;;;41.10;28.00;;;;;;4936962;29;19939;-96
2022/08/01 15:34:34;;;;;;;;;;;41.50;28.10;;;;;;4919911;29;19948;-96
2022/08/01 15:37:00;;;;;;;;;;;41.20;27.00;;;;;;4919754;29;19951;-96
2022/08/01 15:39:25;;;;;;;;;;;40.40;27.70;;;;;;4937005;29;19950;-96
2022/08/01 15:41:51;;;;;;;;;;;40.40;22.50;;;;;;4936854;29;19939;-96
2022/08/01 15:44:21;;;;;;;;;;;40.20;21.50;;;;;;4919279;29;20053;-96
2022/08/01 15:46:47;;;;;;;;;;;40.00;22.00;;;;;;4936656;29;19971;-96
2022/08/01 15:49:13;;;;;;;;;;;39.50;20.80;;;;;;4935648;29;20476;-96
2022/08/01 15:51:38;;;;;;;;;;;38.70;21.50;;;;;;4933829;29;19965;-96
2022/08/01 15:54:06;;;;;;;;;;;38.60;21.70;;;;;;4935389;29;19983;-96
2022/08/01 15:56:32;;;;;;;;;;;38.60;21.30;;;;;;4936474;29;20298;-96
2022/08/01 15:58:57;;;;;;;;;;;39.10;20.90;;;;;;4936538;29;19946;-96
2022/08/01 16:01:25;;;;;;;;;;;39.00;21.80;;;;;;4935773;29;19941;-96
2022/08/01 16:03:51;;;;;;;;;;;38.60;22.10;;;;;;4935593;29;19965;-96
2022/08/01 16:06:16;;;;;;;;;;;38.40;22.90;;;;;;4936435;29;19964;-96
2022/08/01 16:08:42;;;;;;;;;;;38.70;23.10;;;;;;4919536;29;20014;-96
2022/08/01 16:11:08;;;;;;;;;;;38.50;22.70;;;;;;4936264;29;19941;-96
2022/08/01 16:13:33;;;;;;;;;;;38.10;23.10;;;;;;4936406;29;20466;-96
2022/08/01 16:16:01;;;;;;;;;;;38.30;23.40;;;;;;4936310;29;20024;-96
2022/08/01 16:18:27;;;;;;;;;;;38.40;23.70;;;;;;4936515;29;19956;-96
2022/08/01 16:20:52;;;;;;;;;;;38.30;23.50;;;;;;4936610;29;20331;-96
2022/08/01 16:23:18;;;;;;;;;;;38.40;23.90;;;;;;4936416;29;20432;-96